sensor_id;sensor_type;location;lat;lon;timestamp;temperature;humidity
3418;DHT22;1722;51.316;12.370;2022-09-09T00:00:24;16.50;90.30
3418;DHT22;1722;51.316;12.370;2022-09-09T00:03:00;16.50;90.50
3418;DHT22;1722;51.316;12.370;2022-09-09T00:05:37;16.60;90.40
3418;DHT22;1722;51.316;12.370;2022-09-09T00:08:11;16.60;90.30
3418;DHT22;1722;51.316;12.370;2022-09-09T00:10:42;16.60;90.40
3418;DHT22;1722;51.316;12.370;2022-09-09T00:13:16;16.60;90.30
3418;DHT22;1722;51.316;12.370;2022-09-09T00:15:54;16.50;90.40
3418;DHT22;1722;51.316;12.370;2022-09-09T00:18:28;16.60;90.30
3418;DHT22;1722;51.316;12.370;2022-09-09T00:21:04;16.60;90.30
3418;DHT22;1722;51.316;12.370;2022-09-09T00:23:35;16.50;90.40
3418;DHT22;1722;51.316;12.370;2022-09-09T00:26:09;16.40;90.50
3418;DHT22;1722;51.316;12.370;2022-09-09T00:28:44;16.30;90.50
3418;DHT22;1722;51.316;12.370;2022-09-09T00:31:15;16.20;90.70
3418;DHT22;1722;51.316;12.370;2022-09-09T00:33:44;16.10;90.90
3418;DHT22;1722;51.316;12.370;2022-09-09T00:36:17;16.10;91.00
3418;DHT22;1722;51.316;12.370;2022-09-09T00:38:48;16.10;91.00
3418;DHT22;1722;51.316;12.370;2022-09-09T00:41:21;16.10;91.00
3418;DHT22;1722;51.316;12.370;2022-09-09T00:43:57;16.20;90.80
3418;DHT22;1722;51.316;12.370;2022-09-09T00:46:45;16.00;91.00
3418;DHT22;1722;51.316;12.370;2022-09-09T00:49:24;15.90;91.30
3418;DHT22;1722;51.316;12.370;2022-09-09T00:52:08;16.00;91.30
3418;DHT22;1722;51.316;12.370;2022-09-09T00:54:45;15.90;91.40
3418;DHT22;1722;51.316;12.370;2022-09-09T00:57:25;15.80;91.40
3418;DHT22;1722;51.316;12.370;2022-09-09T01:02:57;15.70;91.60
3418;DHT22;1722;51.316;12.370;2022-09-09T01:05:35;15.80;91.60
3418;DHT22;1722;51.316;12.370;2022-09-09T01:08:11;15.70;91.70
3418;DHT22;1722;51.316;12.370;2022-09-09T01:10:47;15.60;91.90
3418;DHT22;1722;51.316;12.370;2022-09-09T01:13:22;15.60;91.90
3418;DHT22;1722;51.316;12.370;2022-09-09T01:15:51;15.60;92.00
3418;DHT22;1722;51.316;12.370;2022-09-09T01:18:22;15.60;92.10
3418;DHT22;1722;51.316;12.370;2022-09-09T01:21:06;15.40;92.10
3418;DHT22;1722;51.316;12.370;2022-09-09T01:23:53;15.50;92.20
3418;DHT22;1722;51.316;12.370;2022-09-09T01:26:30;15.60;92.10
3418;DHT22;1722;51.316;12.370;2022-09-09T01:28:58;15.50;92.00
3418;DHT22;1722;51.316;12.370;2022-09-09T01:31:28;15.60;92.00
3418;DHT22;1722;51.316;12.370;2022-09-09T01:33:56;15.60;91.90
3418;DHT22;1722;51.316;12.370;2022-09-09T01:36:28;15.50;92.10
3418;DHT22;1722;51.316;12.370;2022-09-09T01:38:57;15.40;92.40
3418;DHT22;1722;51.316;12.370;2022-09-09T01:41:24;15.30;92.50
3418;DHT22;1722;51.316;12.370;2022-09-09T01:43:55;15.40;92.40
3418;DHT22;1722;51.316;12.370;2022-09-09T01:46:23;15.50;92.30
3418;DHT22;1722;51.316;12.370;2022-09-09T01:48:52;15.40;92.40
3418;DHT22;1722;51.316;12.370;2022-09-09T01:51:20;15.50;92.30
3418;DHT22;1722;51.316;12.370;2022-09-09T01:53:47;15.50;92.20
3418;DHT22;1722;51.316;12.370;2022-09-09T01:56:24;15.50;92.20
3418;DHT22;1722;51.316;12.370;2022-09-09T01:59:05;15.70;91.90
3418;DHT22;1722;51.316;12.370;2022-09-09T02:01:46;15.70;91.80
3418;DHT22;1722;51.316;12.370;2022-09-09T02:04:27;15.70;91.70
3418;DHT22;1722;51.316;12.370;2022-09-09T02:07:00;15.80;91.60
3418;DHT22;1722;51.316;12.370;2022-09-09T02:09:29;15.80;91.50
3418;DHT22;1722;51.316;12.370;2022-09-09T02:12:01;15.90;91.40
3418;DHT22;1722;51.316;12.370;2022-09-09T02:14:36;15.90;91.50
3418;DHT22;1722;51.316;12.370;2022-09-09T02:17:08;15.80;91.60
3418;DHT22;1722;51.316;12.370;2022-09-09T02:19:39;15.80;91.80
3418;DHT22;1722;51.316;12.370;2022-09-09T02:22:08;15.80;92.00
3418;DHT22;1722;51.316;12.370;2022-09-09T02:24:38;15.70;92.10
3418;DHT22;1722;51.316;12.370;2022-09-09T02:27:08;15.70;92.20
3418;DHT22;1722;51.316;12.370;2022-09-09T02:29:40;15.60;92.50
3418;DHT22;1722;51.316;12.370;2022-09-09T02:32:11;15.60;92.30
3418;DHT22;1722;51.316;12.370;2022-09-09T02:34:43;15.60;92.30
3418;DHT22;1722;51.316;12.370;2022-09-09T02:37:15;15.70;92.30
3418;DHT22;1722;51.316;12.370;2022-09-09T02:39:44;15.60;92.30
3418;DHT22;1722;51.316;12.370;2022-09-09T02:42:12;15.50;92.30
3418;DHT22;1722;51.316;12.370;2022-09-09T02:44:42;15.50;92.40
3418;DHT22;1722;51.316;12.370;2022-09-09T02:47:26;15.50;92.50
3418;DHT22;1722;51.316;12.370;2022-09-09T02:50:03;15.50;92.90
3418;DHT22;1722;51.316;12.370;2022-09-09T02:52:38;15.40;92.70
3418;DHT22;1722;51.316;12.370;2022-09-09T02:55:18;15.50;92.70
3418;DHT22;1722;51.316;12.370;2022-09-09T02:57:48;15.40;92.80
3418;DHT22;1722;51.316;12.370;2022-09-09T03:00:24;15.50;92.70
3418;DHT22;1722;51.316;12.370;2022-09-09T03:02:52;15.40;92.70
3418;DHT22;1722;51.316;12.370;2022-09-09T03:05:21;15.40;93.00
3418;DHT22;1722;51.316;12.370;2022-09-09T03:07:48;15.40;93.00
3418;DHT22;1722;51.316;12.370;2022-09-09T03:10:17;15.30;93.10
3418;DHT22;1722;51.316;12.370;2022-09-09T03:12:44;15.30;93.10
3418;DHT22;1722;51.316;12.370;2022-09-09T03:15:11;15.30;93.20
3418;DHT22;1722;51.316;12.370;2022-09-09T03:17:41;15.30;92.90
3418;DHT22;1722;51.316;12.370;2022-09-09T03:20:09;15.40;92.90
3418;DHT22;1722;51.316;12.370;2022-09-09T03:22:36;15.40;92.70
3418;DHT22;1722;51.316;12.370;2022-09-09T03:25:05;15.50;92.50
3418;DHT22;1722;51.316;12.370;2022-09-09T03:27:32;15.40;92.70
3418;DHT22;1722;51.316;12.370;2022-09-09T03:30:00;15.40;92.70
3418;DHT22;1722;51.316;12.370;2022-09-09T03:32:29;15.50;92.60
3418;DHT22;1722;51.316;12.370;2022-09-09T03:34:58;15.40;92.50
3418;DHT22;1722;51.316;12.370;2022-09-09T03:37:26;15.40;92.60
3418;DHT22;1722;51.316;12.370;2022-09-09T03:39:53;15.40;92.60
3418;DHT22;1722;51.316;12.370;2022-09-09T03:42:21;15.50;92.60
3418;DHT22;1722;51.316;12.370;2022-09-09T03:44:49;15.50;92.50
3418;DHT22;1722;51.316;12.370;2022-09-09T03:47:17;15.60;92.30
3418;DHT22;1722;51.316;12.370;2022-09-09T03:49:45;15.50;92.30
3418;DHT22;1722;51.316;12.370;2022-09-09T03:52:15;15.60;92.30
3418;DHT22;1722;51.316;12.370;2022-09-09T03:54:42;15.50;92.40
3418;DHT22;1722;51.316;12.370;2022-09-09T03:57:10;15.50;92.40
3418;DHT22;1722;51.316;12.370;2022-09-09T03:59:37;15.50;92.30
3418;DHT22;1722;51.316;12.370;2022-09-09T04:02:04;15.50;92.30
3418;DHT22;1722;51.316;12.370;2022-09-09T04:04:32;15.50;92.30
3418;DHT22;1722;51.316;12.370;2022-09-09T04:06:59;15.50;92.30
3418;DHT22;1722;51.316;12.370;2022-09-09T04:09:28;15.60;92.30
3418;DHT22;1722;51.316;12.370;2022-09-09T04:11:56;15.60;92.20
3418;DHT22;1722;51.316;12.370;2022-09-09T04:14:23;15.50;92.20
3418;DHT22;1722;51.316;12.370;2022-09-09T04:16:54;15.60;92.20
3418;DHT22;1722;51.316;12.370;2022-09-09T04:19:24;15.70;92.10
3418;DHT22;1722;51.316;12.370;2022-09-09T04:21:51;15.70;92.00
3418;DHT22;1722;51.316;12.370;2022-09-09T04:24:19;15.80;91.90
3418;DHT22;1722;51.316;12.370;2022-09-09T04:26:49;15.80;91.80
3418;DHT22;1722;51.316;12.370;2022-09-09T04:29:16;15.70;91.80
3418;DHT22;1722;51.316;12.370;2022-09-09T04:31:43;15.60;91.90
3418;DHT22;1722;51.316;12.370;2022-09-09T04:34:11;15.60;91.90
3418;DHT22;1722;51.316;12.370;2022-09-09T04:36:38;15.60;92.00
3418;DHT22;1722;51.316;12.370;2022-09-09T04:39:06;15.50;91.90
3418;DHT22;1722;51.316;12.370;2022-09-09T04:41:33;15.50;92.20
3418;DHT22;1722;51.316;12.370;2022-09-09T04:44:02;15.50;92.00
3418;DHT22;1722;51.316;12.370;2022-09-09T04:46:30;15.40;92.10
3418;DHT22;1722;51.316;12.370;2022-09-09T04:48:57;15.40;92.10
3418;DHT22;1722;51.316;12.370;2022-09-09T04:51:25;15.40;92.10
3418;DHT22;1722;51.316;12.370;2022-09-09T04:53:52;15.40;92.20
3418;DHT22;1722;51.316;12.370;2022-09-09T04:56:20;15.30;92.30
3418;DHT22;1722;51.316;12.370;2022-09-09T04:58:48;15.40;92.20
3418;DHT22;1722;51.316;12.370;2022-09-09T05:01:18;15.40;92.20
3418;DHT22;1722;51.316;12.370;2022-09-09T05:03:46;15.40;92.20
3418;DHT22;1722;51.316;12.370;2022-09-09T05:06:15;15.40;92.10
3418;DHT22;1722;51.316;12.370;2022-09-09T05:08:44;15.50;92.00
3418;DHT22;1722;51.316;12.370;2022-09-09T05:11:16;15.50;91.80
3418;DHT22;1722;51.316;12.370;2022-09-09T05:13:45;15.40;92.00
3418;DHT22;1722;51.316;12.370;2022-09-09T05:16:13;15.60;92.00
3418;DHT22;1722;51.316;12.370;2022-09-09T05:18:42;15.60;91.70
3418;DHT22;1722;51.316;12.370;2022-09-09T05:21:10;15.60;91.60
3418;DHT22;1722;51.316;12.370;2022-09-09T05:23:38;15.80;91.50
3418;DHT22;1722;51.316;12.370;2022-09-09T05:26:06;15.90;91.30
3418;DHT22;1722;51.316;12.370;2022-09-09T05:28:35;15.90;91.20
3418;DHT22;1722;51.316;12.370;2022-09-09T05:31:04;16.00;91.10
3418;DHT22;1722;51.316;12.370;2022-09-09T05:33:34;16.10;91.00
3418;DHT22;1722;51.316;12.370;2022-09-09T05:36:05;16.10;90.90
3418;DHT22;1722;51.316;12.370;2022-09-09T05:38:34;16.10;91.00
3418;DHT22;1722;51.316;12.370;2022-09-09T05:41:03;16.10;90.90
3418;DHT22;1722;51.316;12.370;2022-09-09T05:43:31;16.20;90.90
3418;DHT22;1722;51.316;12.370;2022-09-09T05:45:59;16.30;90.80
3418;DHT22;1722;51.316;12.370;2022-09-09T05:48:29;16.30;90.70
3418;DHT22;1722;51.316;12.370;2022-09-09T05:50:58;16.30;90.50
3418;DHT22;1722;51.316;12.370;2022-09-09T05:53:27;16.20;90.40
3418;DHT22;1722;51.316;12.370;2022-09-09T05:56:00;16.30;90.60
3418;DHT22;1722;51.316;12.370;2022-09-09T05:58:29;16.20;90.70
3418;DHT22;1722;51.316;12.370;2022-09-09T06:01:01;16.30;90.50
3418;DHT22;1722;51.316;12.370;2022-09-09T06:03:29;16.30;90.40
3418;DHT22;1722;51.316;12.370;2022-09-09T06:06:00;16.30;90.50
3418;DHT22;1722;51.316;12.370;2022-09-09T06:08:29;16.30;90.60
3418;DHT22;1722;51.316;12.370;2022-09-09T06:11:01;16.30;90.50
3418;DHT22;1722;51.316;12.370;2022-09-09T06:13:30;16.30;90.50
3418;DHT22;1722;51.316;12.370;2022-09-09T06:15:58;16.30;90.40
3418;DHT22;1722;51.316;12.370;2022-09-09T06:18:26;16.20;90.70
3418;DHT22;1722;51.316;12.370;2022-09-09T06:20:55;16.30;90.70
3418;DHT22;1722;51.316;12.370;2022-09-09T06:23:22;16.40;90.40
3418;DHT22;1722;51.316;12.370;2022-09-09T06:25:51;16.50;90.10
3418;DHT22;1722;51.316;12.370;2022-09-09T06:28:19;16.60;90.00
3418;DHT22;1722;51.316;12.370;2022-09-09T06:30:46;16.60;89.80
3418;DHT22;1722;51.316;12.370;2022-09-09T06:33:13;16.60;90.00
3418;DHT22;1722;51.316;12.370;2022-09-09T06:35:41;16.70;89.80
3418;DHT22;1722;51.316;12.370;2022-09-09T06:38:08;16.70;89.70
3418;DHT22;1722;51.316;12.370;2022-09-09T06:40:36;16.60;90.00
3418;DHT22;1722;51.316;12.370;2022-09-09T06:43:04;16.70;90.10
3418;DHT22;1722;51.316;12.370;2022-09-09T06:45:32;16.60;90.40
3418;DHT22;1722;51.316;12.370;2022-09-09T06:48:01;16.70;89.90
3418;DHT22;1722;51.316;12.370;2022-09-09T06:50:28;16.70;90.00
3418;DHT22;1722;51.316;12.370;2022-09-09T06:52:55;16.70;89.90
3418;DHT22;1722;51.316;12.370;2022-09-09T06:55:23;16.80;89.80
3418;DHT22;1722;51.316;12.370;2022-09-09T06:57:50;16.90;89.80
3418;DHT22;1722;51.316;12.370;2022-09-09T07:00:19;17.00;89.50
3418;DHT22;1722;51.316;12.370;2022-09-09T07:02:47;17.20;89.30
3418;DHT22;1722;51.316;12.370;2022-09-09T07:05:17;17.40;88.20
3418;DHT22;1722;51.316;12.370;2022-09-09T07:07:44;17.40;87.50
3418;DHT22;1722;51.316;12.370;2022-09-09T07:10:11;17.30;88.20
3418;DHT22;1722;51.316;12.370;2022-09-09T07:12:39;17.30;87.50
3418;DHT22;1722;51.316;12.370;2022-09-09T07:15:07;17.40;87.80
3418;DHT22;1722;51.316;12.370;2022-09-09T07:17:36;17.40;87.50
3418;DHT22;1722;51.316;12.370;2022-09-09T07:20:04;17.50;87.60
3418;DHT22;1722;51.316;12.370;2022-09-09T07:22:33;17.60;87.70
3418;DHT22;1722;51.316;12.370;2022-09-09T07:25:00;17.50;87.40
3418;DHT22;1722;51.316;12.370;2022-09-09T07:27:28;17.70;87.30
3418;DHT22;1722;51.316;12.370;2022-09-09T07:29:56;17.70;86.40
3418;DHT22;1722;51.316;12.370;2022-09-09T07:32:23;17.70;86.90
3418;DHT22;1722;51.316;12.370;2022-09-09T07:34:53;17.70;86.80
3418;DHT22;1722;51.316;12.370;2022-09-09T07:37:20;17.80;86.00
3418;DHT22;1722;51.316;12.370;2022-09-09T07:39:48;17.70;86.00
3418;DHT22;1722;51.316;12.370;2022-09-09T07:42:17;17.80;86.40
3418;DHT22;1722;51.316;12.370;2022-09-09T07:44:45;17.90;86.50
3418;DHT22;1722;51.316;12.370;2022-09-09T07:47:13;18.10;85.50
3418;DHT22;1722;51.316;12.370;2022-09-09T07:49:40;18.20;85.00
3418;DHT22;1722;51.316;12.370;2022-09-09T07:52:09;18.30;85.40
3418;DHT22;1722;51.316;12.370;2022-09-09T07:54:36;18.40;85.00
3418;DHT22;1722;51.316;12.370;2022-09-09T07:57:04;18.60;84.00
3418;DHT22;1722;51.316;12.370;2022-09-09T07:59:31;18.70;83.60
3418;DHT22;1722;51.316;12.370;2022-09-09T08:01:59;18.90;82.90
3418;DHT22;1722;51.316;12.370;2022-09-09T08:04:27;19.10;83.40
3418;DHT22;1722;51.316;12.370;2022-09-09T08:06:56;19.30;81.30
3418;DHT22;1722;51.316;12.370;2022-09-09T08:09:26;19.30;81.60
3418;DHT22;1722;51.316;12.370;2022-09-09T08:11:55;19.40;80.60
3418;DHT22;1722;51.316;12.370;2022-09-09T08:14:23;19.60;81.20
3418;DHT22;1722;51.316;12.370;2022-09-09T08:16:51;19.60;80.70
3418;DHT22;1722;51.316;12.370;2022-09-09T08:19:19;19.70;80.80
3418;DHT22;1722;51.316;12.370;2022-09-09T08:21:47;19.80;80.70
3418;DHT22;1722;51.316;12.370;2022-09-09T08:24:15;19.80;80.10
3418;DHT22;1722;51.316;12.370;2022-09-09T08:26:45;19.70;81.20
3418;DHT22;1722;51.316;12.370;2022-09-09T08:29:13;19.70;80.00
3418;DHT22;1722;51.316;12.370;2022-09-09T08:31:43;19.60;81.60
3418;DHT22;1722;51.316;12.370;2022-09-09T08:34:11;19.70;80.90
3418;DHT22;1722;51.316;12.370;2022-09-09T08:36:40;19.80;80.60
3418;DHT22;1722;51.316;12.370;2022-09-09T08:39:10;19.90;80.70
3418;DHT22;1722;51.316;12.370;2022-09-09T08:45:05;19.70;80.90
3418;DHT22;1722;51.316;12.370;2022-09-09T08:47:45;19.50;81.50
3418;DHT22;1722;51.316;12.370;2022-09-09T08:50:22;19.60;81.70
3418;DHT22;1722;51.316;12.370;2022-09-09T08:52:56;19.70;81.90
3418;DHT22;1722;51.316;12.370;2022-09-09T08:55:32;19.70;81.90
3418;DHT22;1722;51.316;12.370;2022-09-09T08:58:12;19.80;81.60
3418;DHT22;1722;51.316;12.370;2022-09-09T09:00:58;19.90;80.50
3418;DHT22;1722;51.316;12.370;2022-09-09T09:03:33;19.80;81.50
3418;DHT22;1722;51.316;12.370;2022-09-09T09:06:10;19.80;81.40
3418;DHT22;1722;51.316;12.370;2022-09-09T09:08:47;19.90;80.90
3418;DHT22;1722;51.316;12.370;2022-09-09T09:11:19;19.90;80.30
3418;DHT22;1722;51.316;12.370;2022-09-09T09:13:53;20.10;80.40
3418;DHT22;1722;51.316;12.370;2022-09-09T09:16:34;20.10;79.90
3418;DHT22;1722;51.316;12.370;2022-09-09T09:19:08;20.30;79.60
3418;DHT22;1722;51.316;12.370;2022-09-09T09:21:43;20.50;78.70
3418;DHT22;1722;51.316;12.370;2022-09-09T09:24:18;20.60;77.50
3418;DHT22;1722;51.316;12.370;2022-09-09T09:26:46;21.00;76.20
3418;DHT22;1722;51.316;12.370;2022-09-09T09:29:17;21.10;75.60
3418;DHT22;1722;51.316;12.370;2022-09-09T09:31:48;21.20;75.10
3418;DHT22;1722;51.316;12.370;2022-09-09T09:34:17;21.50;74.60
3418;DHT22;1722;51.316;12.370;2022-09-09T09:36:53;21.70;73.40
3418;DHT22;1722;51.316;12.370;2022-09-09T09:39:25;21.90;71.90
3418;DHT22;1722;51.316;12.370;2022-09-09T09:41:54;22.10;71.60
3418;DHT22;1722;51.316;12.370;2022-09-09T09:44:25;22.20;70.30
3418;DHT22;1722;51.316;12.370;2022-09-09T09:47:04;22.40;69.80
3418;DHT22;1722;51.316;12.370;2022-09-09T09:49:33;22.70;69.80
3418;DHT22;1722;51.316;12.370;2022-09-09T09:52:01;22.80;69.20
3418;DHT22;1722;51.316;12.370;2022-09-09T09:54:31;22.80;69.40
3418;DHT22;1722;51.316;12.370;2022-09-09T09:57:09;23.00;68.10
3418;DHT22;1722;51.316;12.370;2022-09-09T09:59:38;23.00;68.20
3418;DHT22;1722;51.316;12.370;2022-09-09T10:02:14;22.90;68.50
3418;DHT22;1722;51.316;12.370;2022-09-09T10:04:42;23.30;67.90
3418;DHT22;1722;51.316;12.370;2022-09-09T10:07:12;23.50;66.50
3418;DHT22;1722;51.316;12.370;2022-09-09T10:09:40;23.50;65.10
3418;DHT22;1722;51.316;12.370;2022-09-09T10:12:16;23.90;65.70
3418;DHT22;1722;51.316;12.370;2022-09-09T10:14:52;23.90;64.00
3418;DHT22;1722;51.316;12.370;2022-09-09T10:17:29;24.10;64.50
3418;DHT22;1722;51.316;12.370;2022-09-09T10:20:16;23.90;65.30
3418;DHT22;1722;51.316;12.370;2022-09-09T10:22:51;23.70;65.30
3418;DHT22;1722;51.316;12.370;2022-09-09T10:25:48;23.60;64.90
3418;DHT22;1722;51.316;12.370;2022-09-09T10:28:30;23.50;66.70
3418;DHT22;1722;51.316;12.370;2022-09-09T10:31:10;23.50;66.70
3418;DHT22;1722;51.316;12.370;2022-09-09T10:33:47;23.40;66.70
3418;DHT22;1722;51.316;12.370;2022-09-09T10:36:19;23.20;66.80
3418;DHT22;1722;51.316;12.370;2022-09-09T10:38:53;23.30;67.00
3418;DHT22;1722;51.316;12.370;2022-09-09T10:41:35;23.70;65.40
3418;DHT22;1722;51.316;12.370;2022-09-09T10:44:20;23.70;64.40
3418;DHT22;1722;51.316;12.370;2022-09-09T10:47:01;23.80;65.20
3418;DHT22;1722;51.316;12.370;2022-09-09T10:49:47;23.60;65.00
3418;DHT22;1722;51.316;12.370;2022-09-09T10:52:24;24.00;63.70
3418;DHT22;1722;51.316;12.370;2022-09-09T10:54:58;24.20;64.00
3418;DHT22;1722;51.316;12.370;2022-09-09T10:57:31;24.70;63.10
3418;DHT22;1722;51.316;12.370;2022-09-09T11:00:03;24.50;62.80
3418;DHT22;1722;51.316;12.370;2022-09-09T11:02:34;24.60;62.70
3418;DHT22;1722;51.316;12.370;2022-09-09T11:05:05;24.50;61.80
3418;DHT22;1722;51.316;12.370;2022-09-09T11:07:40;24.60;62.00
3418;DHT22;1722;51.316;12.370;2022-09-09T11:10:17;24.80;61.20
3418;DHT22;1722;51.316;12.370;2022-09-09T11:12:49;25.00;60.80
3418;DHT22;1722;51.316;12.370;2022-09-09T11:15:23;25.30;59.00
3418;DHT22;1722;51.316;12.370;2022-09-09T11:17:56;25.20;57.80
3418;DHT22;1722;51.316;12.370;2022-09-09T11:20:26;24.90;58.50
3418;DHT22;1722;51.316;12.370;2022-09-09T11:22:58;24.60;58.60
3418;DHT22;1722;51.316;12.370;2022-09-09T11:25:32;24.60;58.60
3418;DHT22;1722;51.316;12.370;2022-09-09T11:28:18;24.80;59.90
3418;DHT22;1722;51.316;12.370;2022-09-09T11:30:59;27.10;54.80
3418;DHT22;1722;51.316;12.370;2022-09-09T11:34:01;29.50;47.80
3418;DHT22;1722;51.316;12.370;2022-09-09T11:37:01;30.60;44.20
3418;DHT22;1722;51.316;12.370;2022-09-09T11:39:57;32.20;41.60
3418;DHT22;1722;51.316;12.370;2022-09-09T11:42:27;32.00;40.00
3418;DHT22;1722;51.316;12.370;2022-09-09T11:44:54;30.00;43.00
3418;DHT22;1722;51.316;12.370;2022-09-09T11:47:25;28.30;45.70
3418;DHT22;1722;51.316;12.370;2022-09-09T11:50:09;27.30;48.30
3418;DHT22;1722;51.316;12.370;2022-09-09T11:52:38;26.50;50.70
3418;DHT22;1722;51.316;12.370;2022-09-09T11:55:10;25.70;52.70
3418;DHT22;1722;51.316;12.370;2022-09-09T11:57:38;26.50;52.20
3418;DHT22;1722;51.316;12.370;2022-09-09T12:00:30;27.50;49.40
3418;DHT22;1722;51.316;12.370;2022-09-09T12:02:59;31.00;45.10
3418;DHT22;1722;51.316;12.370;2022-09-09T12:05:39;33.80;40.40
3418;DHT22;1722;51.316;12.370;2022-09-09T12:08:09;36.90;37.40
3418;DHT22;1722;51.316;12.370;2022-09-09T12:10:39;39.00;34.00
3418;DHT22;1722;51.316;12.370;2022-09-09T12:13:13;39.90;30.00
3418;DHT22;1722;51.316;12.370;2022-09-09T12:15:47;36.60;32.30
3418;DHT22;1722;51.316;12.370;2022-09-09T12:18:22;34.60;34.10
3418;DHT22;1722;51.316;12.370;2022-09-09T12:20:57;32.90;36.60
3418;DHT22;1722;51.316;12.370;2022-09-09T12:23:33;32.80;37.20
3418;DHT22;1722;51.316;12.370;2022-09-09T12:26:22;34.50;35.90
3418;DHT22;1722;51.316;12.370;2022-09-09T12:28:59;33.10;37.30
3418;DHT22;1722;51.316;12.370;2022-09-09T12:31:34;30.70;40.10
3418;DHT22;1722;51.316;12.370;2022-09-09T12:34:10;30.70;42.10
3418;DHT22;1722;51.316;12.370;2022-09-09T12:36:41;34.10;37.30
3418;DHT22;1722;51.316;12.370;2022-09-09T12:39:17;37.70;32.40
3418;DHT22;1722;51.316;12.370;2022-09-09T12:41:53;39.50;30.70
3418;DHT22;1722;51.316;12.370;2022-09-09T12:44:24;40.80;28.80
3418;DHT22;1722;51.316;12.370;2022-09-09T12:46:54;40.30;28.70
3418;DHT22;1722;51.316;12.370;2022-09-09T12:49:27;40.50;28.30
3418;DHT22;1722;51.316;12.370;2022-09-09T12:51:58;40.30;28.70
3418;DHT22;1722;51.316;12.370;2022-09-09T12:54:26;42.00;28.30
3418;DHT22;1722;51.316;12.370;2022-09-09T12:56:54;43.40;27.20
3418;DHT22;1722;51.316;12.370;2022-09-09T12:59:24;43.00;28.00
3418;DHT22;1722;51.316;12.370;2022-09-09T13:01:58;43.20;27.60
3418;DHT22;1722;51.316;12.370;2022-09-09T13:04:26;43.80;26.90
3418;DHT22;1722;51.316;12.370;2022-09-09T13:06:53;43.40;27.10
3418;DHT22;1722;51.316;12.370;2022-09-09T13:09:22;43.60;27.50
3418;DHT22;1722;51.316;12.370;2022-09-09T13:11:52;42.10;26.80
3418;DHT22;1722;51.316;12.370;2022-09-09T13:14:29;41.90;28.10
3418;DHT22;1722;51.316;12.370;2022-09-09T13:17:00;41.30;27.00
3418;DHT22;1722;51.316;12.370;2022-09-09T13:19:32;38.50;28.60
3418;DHT22;1722;51.316;12.370;2022-09-09T13:22:11;36.60;30.60
3418;DHT22;1722;51.316;12.370;2022-09-09T13:24:41;34.80;31.80
3418;DHT22;1722;51.316;12.370;2022-09-09T13:27:31;33.70;34.10
3418;DHT22;1722;51.316;12.370;2022-09-09T13:30:00;32.30;34.90
3418;DHT22;1722;51.316;12.370;2022-09-09T13:32:28;31.00;36.70
3418;DHT22;1722;51.316;12.370;2022-09-09T13:34:57;30.00;38.50
3418;DHT22;1722;51.316;12.370;2022-09-09T13:37:30;29.30;39.50
3418;DHT22;1722;51.316;12.370;2022-09-09T13:40:01;28.90;40.20
3418;DHT22;1722;51.316;12.370;2022-09-09T13:42:31;28.50;41.90
3418;DHT22;1722;51.316;12.370;2022-09-09T13:45:01;28.40;41.70
3418;DHT22;1722;51.316;12.370;2022-09-09T13:47:32;28.00;42.20
3418;DHT22;1722;51.316;12.370;2022-09-09T13:50:17;27.60;42.50
3418;DHT22;1722;51.316;12.370;2022-09-09T13:52:46;27.30;43.40
3418;DHT22;1722;51.316;12.370;2022-09-09T13:55:14;27.00;45.50
3418;DHT22;1722;51.316;12.370;2022-09-09T13:57:51;26.20;47.20
3418;DHT22;1722;51.316;12.370;2022-09-09T14:00:19;25.00;51.20
3418;DHT22;1722;51.316;12.370;2022-09-09T14:02:47;23.30;56.90
3418;DHT22;1722;51.316;12.370;2022-09-09T14:05:14;21.70;70.40
3418;DHT22;1722;51.316;12.370;2022-09-09T14:07:42;20.00;85.00
3418;DHT22;1722;51.316;12.370;2022-09-09T14:10:11;18.90;91.00
3418;DHT22;1722;51.316;12.370;2022-09-09T14:12:40;18.80;96.00
3418;DHT22;1722;51.316;12.370;2022-09-09T14:15:10;19.20;98.00
3418;DHT22;1722;51.316;12.370;2022-09-09T14:17:37;19.10;93.70
3418;DHT22;1722;51.316;12.370;2022-09-09T14:20:07;19.20;92.40
3418;DHT22;1722;51.316;12.370;2022-09-09T14:22:35;19.30;92.90
3418;DHT22;1722;51.316;12.370;2022-09-09T14:25:06;19.50;95.20
3418;DHT22;1722;51.316;12.370;2022-09-09T14:27:33;19.80;94.10
3418;DHT22;1722;51.316;12.370;2022-09-09T14:30:03;20.10;95.00
3418;DHT22;1722;51.316;12.370;2022-09-09T14:32:30;20.30;95.40
3418;DHT22;1722;51.316;12.370;2022-09-09T14:34:58;20.60;94.70
3418;DHT22;1722;51.316;12.370;2022-09-09T14:37:27;20.80;94.50
3418;DHT22;1722;51.316;12.370;2022-09-09T14:39:57;20.90;94.50
3418;DHT22;1722;51.316;12.370;2022-09-09T14:42:24;21.00;93.30
3418;DHT22;1722;51.316;12.370;2022-09-09T14:44:52;21.10;91.20
3418;DHT22;1722;51.316;12.370;2022-09-09T14:47:21;21.20;89.60
3418;DHT22;1722;51.316;12.370;2022-09-09T14:49:49;21.30;92.40
3418;DHT22;1722;51.316;12.370;2022-09-09T14:52:16;21.30;91.10
3418;DHT22;1722;51.316;12.370;2022-09-09T14:54:44;21.30;90.00
3418;DHT22;1722;51.316;12.370;2022-09-09T14:57:11;21.40;86.30
3418;DHT22;1722;51.316;12.370;2022-09-09T14:59:39;21.40;86.50
3418;DHT22;1722;51.316;12.370;2022-09-09T15:02:08;21.60;88.00
3418;DHT22;1722;51.316;12.370;2022-09-09T15:04:37;21.90;85.70
3418;DHT22;1722;51.316;12.370;2022-09-09T15:07:04;22.40;88.50
3418;DHT22;1722;51.316;12.370;2022-09-09T15:09:32;22.80;84.90
3418;DHT22;1722;51.316;12.370;2022-09-09T15:11:59;23.10;81.90
3418;DHT22;1722;51.316;12.370;2022-09-09T15:14:28;23.20;79.90
3418;DHT22;1722;51.316;12.370;2022-09-09T15:16:55;23.20;79.80
3418;DHT22;1722;51.316;12.370;2022-09-09T15:19:22;23.20;77.30
3418;DHT22;1722;51.316;12.370;2022-09-09T15:21:51;23.20;78.40
3418;DHT22;1722;51.316;12.370;2022-09-09T15:24:19;23.40;78.50
3418;DHT22;1722;51.316;12.370;2022-09-09T15:26:46;23.60;76.80
3418;DHT22;1722;51.316;12.370;2022-09-09T15:29:13;23.80;76.10
3418;DHT22;1722;51.316;12.370;2022-09-09T15:31:41;23.90;74.50
3418;DHT22;1722;51.316;12.370;2022-09-09T15:34:09;23.90;72.30
3418;DHT22;1722;51.316;12.370;2022-09-09T15:36:38;24.00;72.40
3418;DHT22;1722;51.316;12.370;2022-09-09T15:39:08;24.00;71.30
3418;DHT22;1722;51.316;12.370;2022-09-09T15:41:38;24.20;70.90
3418;DHT22;1722;51.316;12.370;2022-09-09T15:44:07;24.30;68.60
3418;DHT22;1722;51.316;12.370;2022-09-09T15:46:37;24.50;69.10
3418;DHT22;1722;51.316;12.370;2022-09-09T15:49:06;24.60;67.40
3418;DHT22;1722;51.316;12.370;2022-09-09T15:51:35;24.60;66.20
3418;DHT22;1722;51.316;12.370;2022-09-09T15:54:04;24.50;65.60
3418;DHT22;1722;51.316;12.370;2022-09-09T15:56:33;24.50;66.70
3418;DHT22;1722;51.316;12.370;2022-09-09T15:59:02;24.40;65.90
3418;DHT22;1722;51.316;12.370;2022-09-09T16:01:30;24.30;65.10
3418;DHT22;1722;51.316;12.370;2022-09-09T16:03:58;24.00;63.50
3418;DHT22;1722;51.316;12.370;2022-09-09T16:06:27;24.00;64.50
3418;DHT22;1722;51.316;12.370;2022-09-09T16:08:56;23.90;61.50
3418;DHT22;1722;51.316;12.370;2022-09-09T16:11:29;23.90;61.80
3418;DHT22;1722;51.316;12.370;2022-09-09T16:13:59;23.80;61.90
3418;DHT22;1722;51.316;12.370;2022-09-09T16:16:29;23.80;60.20